createdAt,value
2019-05-18T00:00:19.000Z,30.80
2019-05-18T00:03:13.385Z,30.80
2019-05-18T00:06:08.003Z,30.90
2019-05-18T00:09:02.827Z,30.80
2019-05-18T00:11:57.885Z,30.90
2019-05-18T00:14:53.592Z,30.90
2019-05-18T00:17:48.809Z,30.90
2019-05-18T00:20:43.646Z,30.90
2019-05-18T00:23:38.687Z,30.80
2019-05-18T00:26:33.302Z,30.90
2019-05-18T00:29:28.194Z,30.90
2019-05-18T00:32:25.347Z,30.80
2019-05-18T00:35:22.630Z,30.80
2019-05-18T00:38:19.401Z,30.80
2019-05-18T00:41:15.714Z,30.90
2019-05-18T00:44:11.905Z,30.80
2019-05-18T00:47:08.757Z,30.80
2019-05-18T00:50:04.426Z,30.90
2019-05-18T00:53:00.190Z,30.80
2019-05-18T00:55:56.876Z,30.90
2019-05-18T00:58:52.966Z,30.90
2019-05-18T01:01:50.364Z,30.90
2019-05-18T01:04:45.750Z,30.90
2019-05-18T01:07:43.279Z,30.90
2019-05-18T01:10:41.528Z,30.90
2019-05-18T01:13:39.433Z,30.80
2019-05-18T01:16:36.664Z,30.90
2019-05-18T01:19:33.156Z,30.90
2019-05-18T01:22:32.063Z,30.90
2019-05-18T01:25:29.531Z,30.90
2019-05-18T01:28:26.670Z,30.90
2019-05-18T01:31:24.505Z,30.90
2019-05-18T01:34:21.294Z,30.90
2019-05-18T01:37:18.600Z,30.90
2019-05-18T01:40:16.647Z,30.90
2019-05-18T01:43:14.034Z,30.90
2019-05-18T01:46:09.543Z,30.90
2019-05-18T01:49:05.663Z,30.90
2019-05-18T01:52:01.686Z,30.90
2019-05-18T01:54:57.399Z,30.90
2019-05-18T01:57:52.395Z,30.90
2019-05-18T02:00:48.116Z,30.90
2019-05-18T02:03:44.186Z,30.90
2019-05-18T02:06:39.612Z,30.90
2019-05-18T02:09:36.828Z,30.90
2019-05-18T02:12:32.023Z,30.90
2019-05-18T02:15:27.459Z,30.90
2019-05-18T02:18:28.956Z,30.90
2019-05-18T02:21:19.439Z,30.90
2019-05-18T02:24:14.784Z,30.90
2019-05-18T02:27:10.135Z,31.00
2019-05-18T02:30:06.281Z,30.90
2019-05-18T02:33:01.784Z,30.90
2019-05-18T02:35:56.907Z,31.00
2019-05-18T02:38:54.326Z,30.90
2019-05-18T02:41:50.534Z,31.00
2019-05-18T02:44:46.870Z,31.00
2019-05-18T02:47:43.085Z,31.00
2019-05-18T02:50:39.423Z,31.00
2019-05-18T02:53:36.434Z,31.00
2019-05-18T02:56:32.507Z,31.00
2019-05-18T02:59:28.590Z,31.00
2019-05-18T03:02:24.503Z,31.00
2019-05-18T03:05:20.245Z,31.00
2019-05-18T03:08:15.405Z,31.00
2019-05-18T03:11:10.611Z,31.00
2019-05-18T03:14:07.336Z,31.00
2019-05-18T03:17:03.450Z,31.00
2019-05-18T03:19:59.234Z,31.00
2019-05-18T03:22:55.039Z,31.00
2019-05-18T03:25:50.551Z,31.00
2019-05-18T03:28:45.965Z,31.00
2019-05-18T03:31:42.079Z,31.00
2019-05-18T03:34:38.353Z,31.00
2019-05-18T03:37:33.857Z,31.00
2019-05-18T03:40:29.343Z,31.00
2019-05-18T03:43:27.559Z,31.00
2019-05-18T03:46:24.022Z,31.00
2019-05-18T03:49:26.911Z,31.00
2019-05-18T03:52:17.977Z,31.00
2019-05-18T03:55:14.336Z,31.00
2019-05-18T03:58:09.849Z,31.00
2019-05-18T04:01:05.536Z,31.00
2019-05-18T04:04:00.598Z,31.00
2019-05-18T04:06:56.195Z,31.00
2019-05-18T04:09:51.556Z,31.00
2019-05-18T04:12:47.437Z,31.00
2019-05-18T04:15:43.107Z,31.00
2019-05-18T04:18:39.063Z,31.00
2019-05-18T04:21:35.469Z,31.00
2019-05-18T04:24:31.007Z,31.00
2019-05-18T04:27:26.189Z,31.00
2019-05-18T04:30:21.572Z,31.00
2019-05-18T04:33:18.073Z,31.00
2019-05-18T04:36:15.909Z,31.00
2019-05-18T04:39:12.029Z,31.00
2019-05-18T04:42:07.743Z,31.00
2019-05-18T04:45:02.912Z,31.00
2019-05-18T04:47:58.426Z,31.00
2019-05-18T04:50:53.587Z,31.00
2019-05-18T04:53:48.885Z,31.00
2019-05-18T04:56:44.614Z,31.00
2019-05-18T04:59:41.018Z,31.00
2019-05-18T05:02:37.274Z,31.00
2019-05-18T05:05:33.113Z,31.00
2019-05-18T05:08:29.090Z,31.10
2019-05-18T05:11:24.869Z,31.10
2019-05-18T05:14:20.212Z,31.10
2019-05-18T05:17:17.770Z,31.10
2019-05-18T05:20:19.843Z,31.00
2019-05-18T05:23:10.397Z,31.00
2019-05-18T05:26:05.490Z,31.10
2019-05-18T05:29:01.028Z,31.10
2019-05-18T05:32:01.010Z,31.10
2019-05-18T05:34:58.816Z,31.10
2019-05-18T05:37:53.934Z,31.10
2019-05-18T05:40:49.768Z,31.10
2019-05-18T05:43:48.437Z,31.10
2019-05-18T05:46:45.276Z,31.10
2019-05-18T05:49:42.185Z,31.10
2019-05-18T05:52:40.316Z,31.10
2019-05-18T05:55:37.649Z,31.10
2019-05-18T05:58:34.551Z,31.10
2019-05-18T06:01:32.140Z,31.10
2019-05-18T06:04:28.929Z,31.10
2019-05-18T06:07:25.005Z,31.10
2019-05-18T06:10:21.997Z,31.10
2019-05-18T06:13:19.598Z,31.10
2019-05-18T06:16:17.881Z,31.10
2019-05-18T06:19:15.867Z,31.10
2019-05-18T06:22:12.111Z,31.10
2019-05-18T06:25:08.136Z,31.10
2019-05-18T06:28:06.855Z,31.20
2019-05-18T06:31:03.937Z,31.20
2019-05-18T06:33:59.341Z,31.10
2019-05-18T06:36:56.345Z,31.20
2019-05-18T06:39:54.406Z,31.20
2019-05-18T06:42:51.265Z,31.20
2019-05-18T06:45:47.328Z,31.20
2019-05-18T06:48:44.594Z,31.20
2019-05-18T06:51:40.481Z,31.20
2019-05-18T06:54:37.348Z,31.20
2019-05-18T06:57:36.569Z,31.20
2019-05-18T07:00:33.065Z,31.20
2019-05-18T07:03:30.914Z,31.20
2019-05-18T07:06:28.040Z,31.20
2019-05-18T07:09:23.727Z,31.20
2019-05-18T07:12:20.009Z,31.20
2019-05-18T07:15:19.025Z,31.20
2019-05-18T07:18:17.286Z,31.30
2019-05-18T07:21:21.880Z,31.20
2019-05-18T07:24:12.956Z,31.20
2019-05-18T07:27:10.239Z,31.20
2019-05-18T07:30:08.597Z,31.20
2019-05-18T07:33:07.059Z,31.20
2019-05-18T07:36:06.474Z,31.30
2019-05-18T07:39:04.638Z,31.30
2019-05-18T07:42:03.048Z,31.30
2019-05-18T07:45:00.866Z,31.30
2019-05-18T07:48:00.296Z,31.30
2019-05-18T07:50:58.590Z,31.30
2019-05-18T07:53:55.301Z,31.30
2019-05-18T07:56:52.732Z,31.30
2019-05-18T07:59:49.918Z,31.30
2019-05-18T08:02:44.545Z,31.30
2019-05-18T08:05:42.680Z,31.30
2019-05-18T08:08:38.249Z,31.30
2019-05-18T08:11:35.373Z,31.30
2019-05-18T08:14:32.862Z,31.40
2019-05-18T08:17:28.768Z,31.30
2019-05-18T08:20:23.339Z,31.30
2019-05-18T08:23:19.775Z,31.30
2019-05-18T08:26:16.334Z,31.30
2019-05-18T08:29:12.819Z,31.30
2019-05-18T08:32:07.355Z,31.40
2019-05-18T08:35:01.789Z,31.40
2019-05-18T08:37:56.771Z,31.40
2019-05-18T08:40:52.901Z,31.40
2019-05-18T08:43:47.727Z,31.40
2019-05-18T08:46:42.591Z,31.40
2019-05-18T08:49:37.572Z,31.40
2019-05-18T08:52:35.045Z,31.40
2019-05-18T08:55:28.135Z,31.40
2019-05-18T08:58:23.450Z,31.40
2019-05-18T09:01:17.878Z,31.40
2019-05-18T09:04:12.652Z,31.40
2019-05-18T09:07:06.784Z,31.40
2019-05-18T09:10:01.496Z,31.40
2019-05-18T09:12:59.602Z,31.40
2019-05-18T09:15:55.606Z,31.40
2019-05-18T09:18:50.457Z,31.40
2019-05-18T09:21:45.833Z,31.40
2019-05-18T09:24:40.172Z,31.40
2019-05-18T09:27:34.478Z,31.40
2019-05-18T09:30:29.499Z,31.40
2019-05-18T09:33:24.108Z,31.40
2019-05-18T09:36:20.259Z,31.40
2019-05-18T09:39:15.656Z,31.40
2019-05-18T09:42:12.655Z,31.40
2019-05-18T09:45:07.655Z,31.40
2019-05-18T09:48:05.635Z,31.40
2019-05-18T09:51:00.297Z,31.40
2019-05-18T09:53:54.897Z,31.40
2019-05-18T09:56:49.373Z,31.40
2019-05-18T09:59:43.683Z,31.50
2019-05-18T10:02:39.449Z,31.40
2019-05-18T10:05:34.208Z,31.50
2019-05-18T10:08:28.857Z,31.50
2019-05-18T10:11:23.336Z,31.50
2019-05-18T10:14:19.946Z,31.50
2019-05-18T10:17:16.955Z,31.50
2019-05-18T10:20:12.368Z,31.60
2019-05-18T10:23:12.733Z,31.60
2019-05-18T10:26:03.048Z,31.50
2019-05-18T10:28:57.695Z,31.60
2019-05-18T10:31:52.106Z,31.60
2019-05-18T10:34:46.436Z,31.60
2019-05-18T10:37:42.851Z,31.60
2019-05-18T10:40:38.426Z,31.60
2019-05-18T10:43:33.130Z,31.60
2019-05-18T10:46:28.906Z,31.60
2019-05-18T10:49:26.296Z,31.60
2019-05-18T10:52:25.885Z,31.60
2019-05-18T10:55:24.207Z,31.60
2019-05-18T10:58:23.644Z,31.60
2019-05-18T11:01:18.556Z,31.60
2019-05-18T11:04:13.344Z,31.60
2019-05-18T11:07:07.962Z,31.60
2019-05-18T11:10:02.553Z,31.60
2019-05-18T11:12:56.878Z,31.60
2019-05-18T11:15:51.713Z,31.70
2019-05-18T11:18:45.900Z,31.60
2019-05-18T11:21:40.666Z,31.60
2019-05-18T11:24:35.367Z,31.60
2019-05-18T11:27:30.107Z,31.60
2019-05-18T11:30:26.238Z,31.60
2019-05-18T11:33:20.577Z,31.60
2019-05-18T11:36:16.129Z,31.60
2019-05-18T11:39:11.440Z,31.60
2019-05-18T11:42:06.119Z,31.60
2019-05-18T11:45:03.149Z,31.60
2019-05-18T11:48:00.301Z,31.60
2019-05-18T11:50:55.944Z,31.60
2019-05-18T11:53:58.218Z,31.60
2019-05-18T11:56:48.817Z,31.60
2019-05-18T11:59:42.950Z,31.60
2019-05-18T12:02:38.126Z,31.60
2019-05-18T12:05:32.477Z,31.70
2019-05-18T12:08:27.187Z,31.60
2019-05-18T12:11:22.294Z,31.60
2019-05-18T12:14:17.549Z,31.60
2019-05-18T12:17:12.801Z,31.60
2019-05-18T12:20:10.008Z,31.60
2019-05-18T12:23:08.212Z,31.60
2019-05-18T12:26:02.857Z,31.60
2019-05-18T12:28:58.249Z,31.60
2019-05-18T12:31:52.895Z,31.70
2019-05-18T12:34:48.313Z,31.70
2019-05-18T12:37:43.391Z,31.70
2019-05-18T12:40:39.693Z,31.70
2019-05-18T12:43:34.714Z,31.70
2019-05-18T12:46:29.527Z,31.70
2019-05-18T12:49:23.836Z,31.70
2019-05-18T12:52:18.638Z,31.70
2019-05-18T12:55:13.838Z,31.70
2019-05-18T12:58:11.170Z,31.70
2019-05-18T13:01:06.546Z,31.70
2019-05-18T13:04:04.822Z,31.70
2019-05-18T13:07:02.939Z,31.70
2019-05-18T13:09:58.747Z,31.70
2019-05-18T13:12:54.981Z,31.70
2019-05-18T13:15:50.783Z,31.70
2019-05-18T13:18:45.432Z,31.70
2019-05-18T13:21:41.298Z,31.70
2019-05-18T13:24:45.280Z,31.70
2019-05-18T13:27:39.538Z,31.70
2019-05-18T13:30:35.308Z,31.70
2019-05-18T13:33:33.705Z,31.70
2019-05-18T13:36:29.586Z,31.70
2019-05-18T13:39:27.075Z,31.70
2019-05-18T13:42:25.251Z,31.70
2019-05-18T13:45:24.548Z,31.70
2019-05-18T13:48:22.717Z,31.70
2019-05-18T13:51:20.603Z,31.70
2019-05-18T13:54:17.337Z,31.70
2019-05-18T13:57:16.605Z,31.70
2019-05-18T14:00:16.058Z,31.70
2019-05-18T14:03:13.437Z,31.70
2019-05-18T14:06:09.327Z,31.70
2019-05-18T14:09:06.368Z,31.70
2019-05-18T14:12:03.343Z,31.70
2019-05-18T14:14:59.713Z,31.70
2019-05-18T14:17:56.064Z,31.70
2019-05-18T14:20:53.188Z,31.70
2019-05-18T14:23:51.829Z,31.70
2019-05-18T14:26:48.027Z,31.70
2019-05-18T14:29:43.708Z,31.70
2019-05-18T14:32:41.733Z,31.70
2019-05-18T14:35:39.499Z,31.70
2019-05-18T14:38:37.381Z,31.70
2019-05-18T14:41:33.852Z,31.70
2019-05-18T14:44:30.638Z,31.70
2019-05-18T14:47:28.549Z,31.70
2019-05-18T14:50:24.741Z,31.70
2019-05-18T14:53:20.452Z,31.70
2019-05-18T14:56:16.811Z,31.70
2019-05-18T14:59:14.269Z,31.70
2019-05-18T15:02:12.376Z,31.70
2019-05-18T15:05:11.840Z,31.70
2019-05-18T15:08:09.208Z,31.70
2019-05-18T15:11:04.753Z,31.70
2019-05-18T15:14:02.568Z,31.70
2019-05-18T15:16:59.927Z,31.70
2019-05-18T15:19:55.823Z,31.70
2019-05-18T15:22:52.750Z,31.70
2019-05-18T15:25:51.268Z,31.70
2019-05-18T15:28:45.895Z,31.70
2019-05-18T15:31:40.919Z,31.70
2019-05-18T15:34:35.742Z,31.70
2019-05-18T15:37:30.788Z,31.70
2019-05-18T15:40:26.330Z,31.70
2019-05-18T15:43:21.007Z,31.70
2019-05-18T15:46:15.574Z,31.70
2019-05-18T15:49:10.785Z,31.70
2019-05-18T15:52:05.427Z,31.70
2019-05-18T15:55:03.807Z,31.70
2019-05-18T15:57:58.868Z,31.70
2019-05-18T16:00:53.862Z,31.70
2019-05-18T16:03:49.711Z,31.70
2019-05-18T16:06:44.624Z,31.70
2019-05-18T16:09:40.000Z,31.70
2019-05-18T16:12:34.479Z,31.70
2019-05-18T16:15:29.401Z,31.70
2019-05-18T16:18:24.053Z,31.70
2019-05-18T16:21:19.250Z,31.70
2019-05-18T16:24:14.184Z,31.70
2019-05-18T16:27:08.867Z,31.70
2019-05-18T16:30:04.161Z,31.70
2019-05-18T16:32:59.170Z,31.70
2019-05-18T16:35:54.464Z,31.70
2019-05-18T16:38:49.472Z,31.80
2019-05-18T16:41:44.176Z,31.70
2019-05-18T16:44:38.726Z,31.70
2019-05-18T16:47:33.370Z,31.70
2019-05-18T16:50:28.719Z,31.70
2019-05-18T16:53:23.686Z,31.70
2019-05-18T16:56:18.520Z,31.70
2019-05-18T16:59:14.761Z,31.70
2019-05-18T17:02:09.661Z,31.70
2019-05-18T17:05:06.036Z,31.70
2019-05-18T17:08:03.646Z,31.70
2019-05-18T17:11:02.277Z,31.70
2019-05-18T17:13:59.596Z,31.70
2019-05-18T17:16:56.999Z,31.70
2019-05-18T17:19:55.487Z,31.70
2019-05-18T17:22:52.989Z,31.70
2019-05-18T17:25:49.622Z,31.70
2019-05-18T17:28:47.015Z,31.70
2019-05-18T17:31:42.432Z,31.70
2019-05-18T17:34:39.156Z,31.70
2019-05-18T17:37:34.179Z,31.70
2019-05-18T17:40:29.580Z,31.70
2019-05-18T17:43:25.519Z,31.70
2019-05-18T17:46:20.444Z,31.70
2019-05-18T17:49:26.342Z,31.70
2019-05-18T17:52:12.918Z,31.80
2019-05-18T17:55:08.832Z,31.70
2019-05-18T17:58:04.970Z,31.70
2019-05-18T18:01:03.144Z,31.70
2019-05-18T18:04:00.095Z,31.70
2019-05-18T18:06:55.447Z,31.70
2019-05-18T18:09:50.605Z,31.70
2019-05-18T18:12:45.393Z,31.70
2019-05-18T18:15:41.675Z,31.70
2019-05-18T18:18:40.255Z,31.70
2019-05-18T18:21:36.478Z,31.70
2019-05-18T18:24:33.892Z,31.70
2019-05-18T18:27:29.774Z,31.70
2019-05-18T18:30:25.931Z,31.70
2019-05-18T18:33:22.926Z,31.70
2019-05-18T18:36:19.597Z,31.70
2019-05-18T18:39:17.136Z,31.70
2019-05-18T18:42:12.082Z,31.70
2019-05-18T18:45:09.485Z,31.70
2019-05-18T18:48:04.364Z,31.70
2019-05-18T18:50:59.109Z,31.70
2019-05-18T18:53:54.904Z,31.70
2019-05-18T18:56:50.711Z,31.70
2019-05-18T18:59:46.103Z,31.70
2019-05-18T19:02:42.196Z,31.70
2019-05-18T19:05:38.188Z,31.70
2019-05-18T19:08:35.434Z,31.70
2019-05-18T19:11:32.541Z,31.70
2019-05-18T19:14:30.975Z,31.70
2019-05-18T19:17:27.708Z,31.70
2019-05-18T19:20:25.039Z,31.70
2019-05-18T19:23:22.006Z,31.80
2019-05-18T19:26:20.928Z,31.70
2019-05-18T19:29:17.190Z,31.70
2019-05-18T19:32:13.152Z,31.70
2019-05-18T19:35:08.295Z,31.70
2019-05-18T19:38:03.857Z,31.70
2019-05-18T19:40:59.174Z,31.70
2019-05-18T19:43:53.907Z,31.70
2019-05-18T19:46:48.793Z,31.70
2019-05-18T19:49:44.700Z,31.70
2019-05-18T19:52:39.423Z,31.70
2019-05-18T19:55:34.552Z,31.70
2019-05-18T19:58:30.180Z,31.70
2019-05-18T20:01:26.280Z,31.70
2019-05-18T20:04:21.150Z,31.70
2019-05-18T20:07:16.837Z,31.70
2019-05-18T20:10:12.507Z,31.70
2019-05-18T20:13:08.084Z,31.70
2019-05-18T20:16:05.320Z,31.70
2019-05-18T20:19:02.646Z,31.70
2019-05-18T20:22:00.680Z,31.70
2019-05-18T20:24:58.459Z,31.70
2019-05-18T20:27:53.999Z,31.70
2019-05-18T20:30:50.942Z,31.70
2019-05-18T20:33:47.525Z,31.70
2019-05-18T20:36:44.988Z,31.70
2019-05-18T20:39:41.451Z,31.70
2019-05-18T20:42:38.989Z,31.70
2019-05-18T20:45:34.722Z,31.70
2019-05-18T20:48:29.182Z,31.70
2019-05-18T20:51:23.974Z,31.70
2019-05-18T20:54:18.826Z,31.70
2019-05-18T20:57:12.969Z,31.70
2019-05-18T21:00:08.313Z,31.70
2019-05-18T21:03:04.493Z,31.70
2019-05-18T21:05:58.762Z,31.70
2019-05-18T21:08:54.411Z,31.70
2019-05-18T21:11:48.817Z,31.70
2019-05-18T21:14:43.117Z,31.70
2019-05-18T21:17:37.840Z,31.70
2019-05-18T21:20:32.131Z,31.70
2019-05-18T21:23:26.712Z,31.70
2019-05-18T21:26:21.022Z,31.70
2019-05-18T21:29:15.245Z,31.70
2019-05-18T21:32:10.285Z,31.70
2019-05-18T21:35:05.050Z,31.70
2019-05-18T21:38:00.362Z,31.70
2019-05-18T21:40:54.793Z,31.70
2019-05-18T21:43:49.628Z,31.70
2019-05-18T21:46:44.495Z,31.70
2019-05-18T21:49:41.280Z,31.70
2019-05-18T21:52:37.393Z,31.70
2019-05-18T21:55:33.537Z,31.70
2019-05-18T21:58:29.351Z,31.70
2019-05-18T22:01:25.205Z,31.70
2019-05-18T22:04:20.278Z,31.70
2019-05-18T22:07:16.146Z,31.70
2019-05-18T22:10:25.015Z,31.70
2019-05-18T22:13:09.753Z,31.70
2019-05-18T22:16:06.068Z,31.70
2019-05-18T22:19:02.589Z,31.70
2019-05-18T22:21:58.424Z,31.70
2019-05-18T22:24:53.941Z,31.70
2019-05-18T22:27:48.796Z,31.70
2019-05-18T22:30:45.327Z,31.70
2019-05-18T22:33:41.766Z,31.70
2019-05-18T22:36:38.182Z,31.70
2019-05-18T22:39:34.722Z,31.70
2019-05-18T22:42:30.078Z,31.70
2019-05-18T22:45:27.472Z,31.70
2019-05-18T22:48:38.938Z,31.70
2019-05-18T22:51:23.564Z,31.70
2019-05-18T22:54:21.035Z,31.70
2019-05-18T22:57:16.549Z,31.60
2019-05-18T23:00:11.613Z,31.70
2019-05-18T23:03:09.832Z,31.70
2019-05-18T23:06:04.950Z,31.70
2019-05-18T23:09:01.496Z,31.70
2019-05-18T23:11:59.161Z,31.70
2019-05-18T23:14:53.890Z,31.70
2019-05-18T23:17:49.839Z,31.70
2019-05-18T23:20:45.528Z,31.70
2019-05-18T23:23:42.314Z,31.70
2019-05-18T23:26:38.669Z,31.70
2019-05-18T23:29:34.622Z,31.70
2019-05-18T23:32:30.356Z,31.70
2019-05-18T23:35:28.524Z,31.70
2019-05-18T23:38:26.593Z,31.60
2019-05-18T23:41:23.301Z,31.70
2019-05-18T23:44:18.283Z,31.70
2019-05-18T23:47:13.618Z,31.60
2019-05-18T23:50:09.979Z,31.60
2019-05-18T23:53:07.101Z,31.60
2019-05-18T23:56:03.932Z,31.70
2019-05-18T23:59:00.676Z,31.70
